sensor_id;sensor_type;location;lat;lon;timestamp;P1;durP1;ratioP1;P2;durP2;ratioP2
37641;SDS011;23486;51.956;5.888;2022-12-20T00:01:07;4.28;;;2.05;;
37641;SDS011;23486;51.956;5.888;2022-12-20T00:03:34;4.75;;;2.00;;
37641;SDS011;23486;51.956;5.888;2022-12-20T00:06:00;6.50;;;1.90;;
37641;SDS011;23486;51.956;5.888;2022-12-20T00:08:25;5.93;;;1.73;;
37641;SDS011;23486;51.956;5.888;2022-12-20T00:10:51;7.95;;;1.80;;
37641;SDS011;23486;51.956;5.888;2022-12-20T00:13:17;4.53;;;2.38;;
37641;SDS011;23486;51.956;5.888;2022-12-20T00:15:42;4.90;;;2.20;;
37641;SDS011;23486;51.956;5.888;2022-12-20T00:18:08;9.23;;;1.70;;
37641;SDS011;23486;51.956;5.888;2022-12-20T00:20:34;4.88;;;1.42;;
37641;SDS011;23486;51.956;5.888;2022-12-20T00:23:00;2.97;;;1.40;;
37641;SDS011;23486;51.956;5.888;2022-12-20T00:25:26;3.97;;;1.40;;
37641;SDS011;23486;51.956;5.888;2022-12-20T00:27:51;4.70;;;1.40;;
37641;SDS011;23486;51.956;5.888;2022-12-20T00:30:17;4.35;;;1.55;;
37641;SDS011;23486;51.956;5.888;2022-12-20T00:32:43;8.00;;;2.03;;
37641;SDS011;23486;51.956;5.888;2022-12-20T00:35:09;3.17;;;1.10;;
37641;SDS011;23486;51.956;5.888;2022-12-20T00:37:35;3.70;;;1.50;;
37641;SDS011;23486;51.956;5.888;2022-12-20T00:40:02;2.97;;;1.35;;
37641;SDS011;23486;51.956;5.888;2022-12-20T00:42:28;4.22;;;1.27;;
37641;SDS011;23486;51.956;5.888;2022-12-20T00:44:54;5.60;;;1.38;;
37641;SDS011;23486;51.956;5.888;2022-12-20T00:47:19;2.67;;;1.23;;
37641;SDS011;23486;51.956;5.888;2022-12-20T00:49:46;3.35;;;1.60;;
37641;SDS011;23486;51.956;5.888;2022-12-20T00:52:12;3.13;;;1.10;;
37641;SDS011;23486;51.956;5.888;2022-12-20T00:54:37;4.70;;;1.23;;
37641;SDS011;23486;51.956;5.888;2022-12-20T00:57:03;3.97;;;1.35;;
37641;SDS011;23486;51.956;5.888;2022-12-20T00:59:28;3.63;;;1.30;;
37641;SDS011;23486;51.956;5.888;2022-12-20T01:01:54;3.88;;;1.40;;
37641;SDS011;23486;51.956;5.888;2022-12-20T01:04:20;4.05;;;1.48;;
37641;SDS011;23486;51.956;5.888;2022-12-20T01:06:45;4.60;;;1.42;;
37641;SDS011;23486;51.956;5.888;2022-12-20T01:09:11;4.28;;;1.25;;
37641;SDS011;23486;51.956;5.888;2022-12-20T01:11:37;3.05;;;0.98;;
37641;SDS011;23486;51.956;5.888;2022-12-20T01:14:07;2.97;;;0.77;;
37641;SDS011;23486;51.956;5.888;2022-12-20T01:16:39;3.90;;;1.15;;
37641;SDS011;23486;51.956;5.888;2022-12-20T01:19:07;4.57;;;1.20;;
37641;SDS011;23486;51.956;5.888;2022-12-20T01:21:34;2.90;;;1.13;;
37641;SDS011;23486;51.956;5.888;2022-12-20T01:23:59;5.43;;;1.35;;
37641;SDS011;23486;51.956;5.888;2022-12-20T01:26:26;5.18;;;1.45;;
37641;SDS011;23486;51.956;5.888;2022-12-20T01:28:56;4.40;;;0.90;;
37641;SDS011;23486;51.956;5.888;2022-12-20T01:31:23;5.55;;;1.30;;
37641;SDS011;23486;51.956;5.888;2022-12-20T01:33:50;4.43;;;1.50;;
37641;SDS011;23486;51.956;5.888;2022-12-20T01:36:18;3.35;;;1.00;;
37641;SDS011;23486;51.956;5.888;2022-12-20T01:38:45;3.22;;;1.00;;
37641;SDS011;23486;51.956;5.888;2022-12-20T01:41:18;2.97;;;1.17;;
37641;SDS011;23486;51.956;5.888;2022-12-20T01:46:16;3.22;;;1.20;;
37641;SDS011;23486;51.956;5.888;2022-12-20T01:48:44;3.30;;;0.88;;
37641;SDS011;23486;51.956;5.888;2022-12-20T01:51:19;3.83;;;1.63;;
37641;SDS011;23486;51.956;5.888;2022-12-20T01:53:46;3.95;;;1.10;;
37641;SDS011;23486;51.956;5.888;2022-12-20T01:56:15;5.20;;;1.15;;
37641;SDS011;23486;51.956;5.888;2022-12-20T01:58:44;3.22;;;1.20;;
37641;SDS011;23486;51.956;5.888;2022-12-20T02:01:13;3.50;;;1.40;;
37641;SDS011;23486;51.956;5.888;2022-12-20T02:03:38;6.57;;;1.00;;
37641;SDS011;23486;51.956;5.888;2022-12-20T02:06:12;4.97;;;1.73;;
37641;SDS011;23486;51.956;5.888;2022-12-20T02:08:40;8.43;;;1.67;;
37641;SDS011;23486;51.956;5.888;2022-12-20T02:16:44;5.18;;;1.38;;
37641;SDS011;23486;51.956;5.888;2022-12-20T02:19:28;5.60;;;2.15;;
37641;SDS011;23486;51.956;5.888;2022-12-20T02:30:22;4.93;;;2.22;;
37641;SDS011;23486;51.956;5.888;2022-12-20T02:35:32;5.40;;;2.40;;
37641;SDS011;23486;51.956;5.888;2022-12-20T02:38:01;4.90;;;2.10;;
37641;SDS011;23486;51.956;5.888;2022-12-20T02:40:39;4.93;;;2.17;;
37641;SDS011;23486;51.956;5.888;2022-12-20T02:43:13;5.40;;;2.10;;
37641;SDS011;23486;51.956;5.888;2022-12-20T02:45:57;4.47;;;2.05;;
37641;SDS011;23486;51.956;5.888;2022-12-20T02:48:25;4.15;;;1.73;;
37641;SDS011;23486;51.956;5.888;2022-12-20T02:50:56;4.57;;;2.08;;
37641;SDS011;23486;51.956;5.888;2022-12-20T02:53:27;4.03;;;2.20;;
37641;SDS011;23486;51.956;5.888;2022-12-20T02:55:56;5.57;;;1.67;;
37641;SDS011;23486;51.956;5.888;2022-12-20T02:58:31;3.97;;;1.65;;
37641;SDS011;23486;51.956;5.888;2022-12-20T03:01:02;7.18;;;2.15;;
37641;SDS011;23486;51.956;5.888;2022-12-20T03:03:35;3.65;;;1.80;;
37641;SDS011;23486;51.956;5.888;2022-12-20T03:06:02;5.43;;;2.42;;
37641;SDS011;23486;51.956;5.888;2022-12-20T03:08:28;5.82;;;2.75;;
37641;SDS011;23486;51.956;5.888;2022-12-20T03:10:54;4.15;;;2.33;;
37641;SDS011;23486;51.956;5.888;2022-12-20T03:13:23;5.00;;;2.40;;
37641;SDS011;23486;51.956;5.888;2022-12-20T03:15:49;4.68;;;2.30;;
37641;SDS011;23486;51.956;5.888;2022-12-20T03:18:15;5.82;;;1.90;;
37641;SDS011;23486;51.956;5.888;2022-12-20T03:20:41;4.72;;;2.25;;
37641;SDS011;23486;51.956;5.888;2022-12-20T03:23:07;4.18;;;2.28;;
37641;SDS011;23486;51.956;5.888;2022-12-20T03:25:33;4.88;;;2.17;;
37641;SDS011;23486;51.956;5.888;2022-12-20T03:27:58;4.05;;;2.03;;
37641;SDS011;23486;51.956;5.888;2022-12-20T03:30:24;5.20;;;2.20;;
37641;SDS011;23486;51.956;5.888;2022-12-20T03:32:56;7.43;;;2.25;;
37641;SDS011;23486;51.956;5.888;2022-12-20T03:35:24;5.88;;;2.50;;
37641;SDS011;23486;51.956;5.888;2022-12-20T03:37:50;4.85;;;2.15;;
37641;SDS011;23486;51.956;5.888;2022-12-20T03:40:15;6.35;;;2.42;;
37641;SDS011;23486;51.956;5.888;2022-12-20T03:42:41;6.70;;;2.58;;
37641;SDS011;23486;51.956;5.888;2022-12-20T03:45:07;5.63;;;2.55;;
37641;SDS011;23486;51.956;5.888;2022-12-20T03:47:33;5.53;;;2.33;;
37641;SDS011;23486;51.956;5.888;2022-12-20T03:50:01;6.20;;;2.13;;
37641;SDS011;23486;51.956;5.888;2022-12-20T03:52:27;5.00;;;2.55;;
37641;SDS011;23486;51.956;5.888;2022-12-20T03:54:53;5.78;;;2.78;;
37641;SDS011;23486;51.956;5.888;2022-12-20T03:57:18;6.50;;;2.90;;
37641;SDS011;23486;51.956;5.888;2022-12-20T03:59:44;5.80;;;2.72;;
37641;SDS011;23486;51.956;5.888;2022-12-20T04:02:10;8.23;;;2.45;;
37641;SDS011;23486;51.956;5.888;2022-12-20T04:04:35;5.93;;;2.92;;
37641;SDS011;23486;51.956;5.888;2022-12-20T04:07:01;5.20;;;2.33;;
37641;SDS011;23486;51.956;5.888;2022-12-20T04:09:27;5.80;;;2.42;;
37641;SDS011;23486;51.956;5.888;2022-12-20T04:11:53;5.78;;;2.00;;
37641;SDS011;23486;51.956;5.888;2022-12-20T04:14:18;4.28;;;1.95;;
37641;SDS011;23486;51.956;5.888;2022-12-20T04:16:44;5.15;;;1.92;;
37641;SDS011;23486;51.956;5.888;2022-12-20T04:19:10;4.88;;;1.77;;
37641;SDS011;23486;51.956;5.888;2022-12-20T04:21:36;4.03;;;1.90;;
37641;SDS011;23486;51.956;5.888;2022-12-20T04:24:02;4.45;;;2.13;;
37641;SDS011;23486;51.956;5.888;2022-12-20T04:26:28;3.80;;;1.55;;
37641;SDS011;23486;51.956;5.888;2022-12-20T04:28:54;5.55;;;1.75;;
37641;SDS011;23486;51.956;5.888;2022-12-20T04:31:20;4.60;;;1.98;;
37641;SDS011;23486;51.956;5.888;2022-12-20T04:33:45;4.88;;;1.55;;
37641;SDS011;23486;51.956;5.888;2022-12-20T04:36:12;3.55;;;1.88;;
37641;SDS011;23486;51.956;5.888;2022-12-20T04:38:41;6.93;;;2.38;;
37641;SDS011;23486;51.956;5.888;2022-12-20T04:41:06;4.45;;;2.10;;
37641;SDS011;23486;51.956;5.888;2022-12-20T04:43:32;6.95;;;1.92;;
37641;SDS011;23486;51.956;5.888;2022-12-20T04:45:57;4.68;;;2.17;;
37641;SDS011;23486;51.956;5.888;2022-12-20T04:48:24;4.03;;;1.63;;
37641;SDS011;23486;51.956;5.888;2022-12-20T04:50:51;5.95;;;1.50;;
37641;SDS011;23486;51.956;5.888;2022-12-20T04:53:17;4.25;;;1.77;;
37641;SDS011;23486;51.956;5.888;2022-12-20T04:56:02;3.92;;;1.35;;
37641;SDS011;23486;51.956;5.888;2022-12-20T04:58:28;5.47;;;1.70;;
37641;SDS011;23486;51.956;5.888;2022-12-20T05:00:56;6.80;;;1.90;;
37641;SDS011;23486;51.956;5.888;2022-12-20T05:03:25;5.53;;;1.80;;
37641;SDS011;23486;51.956;5.888;2022-12-20T05:05:51;4.53;;;1.83;;
37641;SDS011;23486;51.956;5.888;2022-12-20T05:08:17;5.53;;;2.20;;
37641;SDS011;23486;51.956;5.888;2022-12-20T05:10:43;5.68;;;1.63;;
37641;SDS011;23486;51.956;5.888;2022-12-20T05:13:09;4.63;;;2.53;;
37641;SDS011;23486;51.956;5.888;2022-12-20T05:15:34;5.72;;;1.42;;
37641;SDS011;23486;51.956;5.888;2022-12-20T05:18:00;5.43;;;2.08;;
37641;SDS011;23486;51.956;5.888;2022-12-20T05:20:27;8.20;;;2.22;;
37641;SDS011;23486;51.956;5.888;2022-12-20T05:22:55;5.75;;;2.20;;
37641;SDS011;23486;51.956;5.888;2022-12-20T05:25:41;5.82;;;2.42;;
37641;SDS011;23486;51.956;5.888;2022-12-20T05:28:29;5.55;;;1.83;;
37641;SDS011;23486;51.956;5.888;2022-12-20T05:30:55;5.78;;;2.42;;
37641;SDS011;23486;51.956;5.888;2022-12-20T05:33:21;7.88;;;2.30;;
37641;SDS011;23486;51.956;5.888;2022-12-20T05:35:47;4.65;;;1.73;;
37641;SDS011;23486;51.956;5.888;2022-12-20T05:38:12;8.48;;;1.98;;
37641;SDS011;23486;51.956;5.888;2022-12-20T05:40:38;5.22;;;1.77;;
37641;SDS011;23486;51.956;5.888;2022-12-20T05:43:04;6.28;;;2.05;;
37641;SDS011;23486;51.956;5.888;2022-12-20T05:45:31;5.82;;;2.20;;
37641;SDS011;23486;51.956;5.888;2022-12-20T05:47:57;5.68;;;2.75;;
37641;SDS011;23486;51.956;5.888;2022-12-20T05:50:23;4.45;;;2.17;;
37641;SDS011;23486;51.956;5.888;2022-12-20T05:52:49;4.38;;;2.28;;
37641;SDS011;23486;51.956;5.888;2022-12-20T05:55:14;5.03;;;2.15;;
37641;SDS011;23486;51.956;5.888;2022-12-20T05:57:40;4.88;;;1.90;;
37641;SDS011;23486;51.956;5.888;2022-12-20T06:00:06;4.38;;;1.75;;
37641;SDS011;23486;51.956;5.888;2022-12-20T06:02:32;4.88;;;1.52;;
37641;SDS011;23486;51.956;5.888;2022-12-20T06:04:58;4.97;;;1.77;;
37641;SDS011;23486;51.956;5.888;2022-12-20T06:07:24;5.20;;;1.98;;
37641;SDS011;23486;51.956;5.888;2022-12-20T06:09:52;6.30;;;1.98;;
37641;SDS011;23486;51.956;5.888;2022-12-20T06:12:18;4.88;;;1.60;;
37641;SDS011;23486;51.956;5.888;2022-12-20T06:14:50;4.75;;;2.05;;
37641;SDS011;23486;51.956;5.888;2022-12-20T06:17:16;5.82;;;1.77;;
37641;SDS011;23486;51.956;5.888;2022-12-20T06:19:42;4.47;;;2.30;;
37641;SDS011;23486;51.956;5.888;2022-12-20T06:22:08;4.75;;;1.90;;
37641;SDS011;23486;51.956;5.888;2022-12-20T06:24:34;6.20;;;2.10;;
37641;SDS011;23486;51.956;5.888;2022-12-20T06:27:01;4.03;;;1.67;;
37641;SDS011;23486;51.956;5.888;2022-12-20T06:29:27;4.55;;;2.25;;
37641;SDS011;23486;51.956;5.888;2022-12-20T06:31:53;4.72;;;1.80;;
37641;SDS011;23486;51.956;5.888;2022-12-20T06:34:19;4.43;;;1.83;;
37641;SDS011;23486;51.956;5.888;2022-12-20T06:36:45;6.45;;;1.92;;
37641;SDS011;23486;51.956;5.888;2022-12-20T06:39:11;3.55;;;1.73;;
37641;SDS011;23486;51.956;5.888;2022-12-20T06:41:38;4.22;;;1.60;;
37641;SDS011;23486;51.956;5.888;2022-12-20T06:44:04;3.97;;;1.73;;
37641;SDS011;23486;51.956;5.888;2022-12-20T06:46:30;4.35;;;1.77;;
37641;SDS011;23486;51.956;5.888;2022-12-20T06:48:56;2.78;;;1.15;;
37641;SDS011;23486;51.956;5.888;2022-12-20T06:51:22;4.90;;;1.23;;
37641;SDS011;23486;51.956;5.888;2022-12-20T06:53:50;3.00;;;1.40;;
37641;SDS011;23486;51.956;5.888;2022-12-20T06:56:19;3.67;;;1.48;;
37641;SDS011;23486;51.956;5.888;2022-12-20T06:58:45;4.38;;;1.48;;
37641;SDS011;23486;51.956;5.888;2022-12-20T07:01:11;5.72;;;1.50;;
37641;SDS011;23486;51.956;5.888;2022-12-20T07:03:37;4.35;;;1.52;;
37641;SDS011;23486;51.956;5.888;2022-12-20T07:06:05;4.78;;;1.27;;
37641;SDS011;23486;51.956;5.888;2022-12-20T07:08:31;4.25;;;1.45;;
37641;SDS011;23486;51.956;5.888;2022-12-20T07:11:02;7.45;;;1.77;;
37641;SDS011;23486;51.956;5.888;2022-12-20T07:13:29;3.83;;;1.27;;
37641;SDS011;23486;51.956;5.888;2022-12-20T07:15:58;4.88;;;1.70;;
37641;SDS011;23486;51.956;5.888;2022-12-20T07:18:25;3.30;;;1.30;;
37641;SDS011;23486;51.956;5.888;2022-12-20T07:20:50;3.58;;;1.83;;
37641;SDS011;23486;51.956;5.888;2022-12-20T07:23:16;4.53;;;1.42;;
37641;SDS011;23486;51.956;5.888;2022-12-20T07:25:52;3.30;;;1.27;;
37641;SDS011;23486;51.956;5.888;2022-12-20T07:28:24;3.70;;;1.50;;
37641;SDS011;23486;51.956;5.888;2022-12-20T07:30:51;4.82;;;1.50;;
37641;SDS011;23486;51.956;5.888;2022-12-20T07:33:17;3.50;;;1.17;;
37641;SDS011;23486;51.956;5.888;2022-12-20T07:35:43;4.65;;;2.20;;
37641;SDS011;23486;51.956;5.888;2022-12-20T07:38:11;4.63;;;1.20;;
37641;SDS011;23486;51.956;5.888;2022-12-20T07:40:41;3.40;;;1.40;;
37641;SDS011;23486;51.956;5.888;2022-12-20T07:43:07;2.80;;;1.02;;
37641;SDS011;23486;51.956;5.888;2022-12-20T07:45:34;3.33;;;1.00;;
37641;SDS011;23486;51.956;5.888;2022-12-20T07:48:01;3.63;;;1.52;;
37641;SDS011;23486;51.956;5.888;2022-12-20T07:50:28;3.90;;;1.33;;
37641;SDS011;23486;51.956;5.888;2022-12-20T07:52:55;4.07;;;1.10;;
37641;SDS011;23486;51.956;5.888;2022-12-20T07:55:21;4.97;;;1.27;;
37641;SDS011;23486;51.956;5.888;2022-12-20T07:57:51;4.82;;;1.02;;
37641;SDS011;23486;51.956;5.888;2022-12-20T08:00:21;2.88;;;0.98;;
37641;SDS011;23486;51.956;5.888;2022-12-20T08:05:16;2.80;;;1.00;;
37641;SDS011;23486;51.956;5.888;2022-12-20T08:07:42;5.38;;;1.48;;
37641;SDS011;23486;51.956;5.888;2022-12-20T08:10:10;3.33;;;1.50;;
37641;SDS011;23486;51.956;5.888;2022-12-20T08:12:37;4.05;;;1.38;;
37641;SDS011;23486;51.956;5.888;2022-12-20T08:15:04;6.35;;;1.65;;
37641;SDS011;23486;51.956;5.888;2022-12-20T08:17:30;3.28;;;1.55;;
37641;SDS011;23486;51.956;5.888;2022-12-20T08:19:56;2.50;;;1.02;;
37641;SDS011;23486;51.956;5.888;2022-12-20T08:22:22;4.05;;;1.83;;
37641;SDS011;23486;51.956;5.888;2022-12-20T08:24:47;3.40;;;1.20;;
37641;SDS011;23486;51.956;5.888;2022-12-20T08:27:13;3.58;;;1.35;;
37641;SDS011;23486;51.956;5.888;2022-12-20T08:29:39;6.15;;;1.52;;
37641;SDS011;23486;51.956;5.888;2022-12-20T08:32:05;3.53;;;1.27;;
37641;SDS011;23486;51.956;5.888;2022-12-20T08:34:31;3.97;;;1.63;;
37641;SDS011;23486;51.956;5.888;2022-12-20T08:37:00;4.45;;;1.33;;
37641;SDS011;23486;51.956;5.888;2022-12-20T08:39:25;4.40;;;1.00;;
37641;SDS011;23486;51.956;5.888;2022-12-20T08:41:51;4.93;;;1.30;;
37641;SDS011;23486;51.956;5.888;2022-12-20T08:44:17;7.05;;;1.48;;
37641;SDS011;23486;51.956;5.888;2022-12-20T08:46:42;6.68;;;1.75;;
37641;SDS011;23486;51.956;5.888;2022-12-20T08:49:08;4.90;;;1.10;;
37641;SDS011;23486;51.956;5.888;2022-12-20T08:51:38;5.30;;;1.40;;
37641;SDS011;23486;51.956;5.888;2022-12-20T08:54:03;4.65;;;0.95;;
37641;SDS011;23486;51.956;5.888;2022-12-20T08:56:29;3.85;;;1.20;;
37641;SDS011;23486;51.956;5.888;2022-12-20T08:58:55;6.13;;;1.40;;
37641;SDS011;23486;51.956;5.888;2022-12-20T09:01:20;3.78;;;1.13;;
37641;SDS011;23486;51.956;5.888;2022-12-20T09:03:46;3.35;;;1.45;;
37641;SDS011;23486;51.956;5.888;2022-12-20T09:06:14;5.28;;;1.50;;
37641;SDS011;23486;51.956;5.888;2022-12-20T09:08:41;6.85;;;1.60;;
37641;SDS011;23486;51.956;5.888;2022-12-20T09:11:09;5.85;;;1.48;;
37641;SDS011;23486;51.956;5.888;2022-12-20T09:13:36;4.30;;;1.67;;
37641;SDS011;23486;51.956;5.888;2022-12-20T09:16:02;7.78;;;1.23;;
37641;SDS011;23486;51.956;5.888;2022-12-20T09:18:29;3.88;;;1.20;;
37641;SDS011;23486;51.956;5.888;2022-12-20T09:20:59;9.18;;;1.40;;
37641;SDS011;23486;51.956;5.888;2022-12-20T09:23:27;2.97;;;0.90;;
37641;SDS011;23486;51.956;5.888;2022-12-20T09:25:53;5.85;;;1.33;;
37641;SDS011;23486;51.956;5.888;2022-12-20T09:28:20;6.10;;;1.27;;
37641;SDS011;23486;51.956;5.888;2022-12-20T09:30:46;4.70;;;1.80;;
37641;SDS011;23486;51.956;5.888;2022-12-20T09:33:12;3.85;;;1.50;;
37641;SDS011;23486;51.956;5.888;2022-12-20T09:35:47;6.65;;;1.50;;
37641;SDS011;23486;51.956;5.888;2022-12-20T09:38:12;5.80;;;1.67;;
37641;SDS011;23486;51.956;5.888;2022-12-20T09:40:39;6.97;;;1.40;;
37641;SDS011;23486;51.956;5.888;2022-12-20T09:43:10;7.00;;;1.73;;
37641;SDS011;23486;51.956;5.888;2022-12-20T09:45:37;5.47;;;1.02;;
37641;SDS011;23486;51.956;5.888;2022-12-20T09:48:03;6.05;;;1.05;;
37641;SDS011;23486;51.956;5.888;2022-12-20T09:50:44;6.20;;;1.00;;
37641;SDS011;23486;51.956;5.888;2022-12-20T09:56:27;5.38;;;1.17;;
37641;SDS011;23486;51.956;5.888;2022-12-20T09:59:03;2.60;;;0.80;;
37641;SDS011;23486;51.956;5.888;2022-12-20T10:01:32;4.57;;;1.27;;
37641;SDS011;23486;51.956;5.888;2022-12-20T10:04:01;4.13;;;1.20;;
37641;SDS011;23486;51.956;5.888;2022-12-20T10:09:02;3.30;;;1.02;;
37641;SDS011;23486;51.956;5.888;2022-12-20T10:14:19;4.15;;;0.95;;
37641;SDS011;23486;51.956;5.888;2022-12-20T10:17:01;4.80;;;1.40;;
37641;SDS011;23486;51.956;5.888;2022-12-20T10:19:45;4.07;;;1.77;;
37641;SDS011;23486;51.956;5.888;2022-12-20T10:22:19;5.95;;;1.20;;
37641;SDS011;23486;51.956;5.888;2022-12-20T10:25:35;4.40;;;1.77;;
37641;SDS011;23486;51.956;5.888;2022-12-20T10:27:45;4.57;;;1.40;;
37641;SDS011;23486;51.956;5.888;2022-12-20T10:30:19;4.70;;;1.48;;
37641;SDS011;23486;51.956;5.888;2022-12-20T10:32:48;5.35;;;1.90;;
37641;SDS011;23486;51.956;5.888;2022-12-20T10:35:37;5.75;;;1.50;;
37641;SDS011;23486;51.956;5.888;2022-12-20T10:38:04;4.13;;;1.58;;
37641;SDS011;23486;51.956;5.888;2022-12-20T10:40:37;5.63;;;2.00;;
37641;SDS011;23486;51.956;5.888;2022-12-20T10:43:23;5.10;;;1.48;;
37641;SDS011;23486;51.956;5.888;2022-12-20T10:45:58;4.78;;;1.55;;
37641;SDS011;23486;51.956;5.888;2022-12-20T10:53:22;5.28;;;1.92;;
37641;SDS011;23486;51.956;5.888;2022-12-20T10:55:49;5.63;;;1.55;;
37641;SDS011;23486;51.956;5.888;2022-12-20T10:58:37;4.95;;;2.05;;
37641;SDS011;23486;51.956;5.888;2022-12-20T11:06:16;4.10;;;1.58;;
37641;SDS011;23486;51.956;5.888;2022-12-20T11:08:42;3.30;;;1.75;;
37641;SDS011;23486;51.956;5.888;2022-12-20T11:11:09;6.32;;;1.92;;
37641;SDS011;23486;51.956;5.888;2022-12-20T11:13:37;6.43;;;2.08;;
37641;SDS011;23486;51.956;5.888;2022-12-20T11:16:03;5.38;;;1.90;;
37641;SDS011;23486;51.956;5.888;2022-12-20T11:29:15;7.00;;;2.55;;
37641;SDS011;23486;51.956;5.888;2022-12-20T11:32:12;9.32;;;2.90;;
37641;SDS011;23486;51.956;5.888;2022-12-20T11:40:41;7.07;;;2.47;;
37641;SDS011;23486;51.956;5.888;2022-12-20T11:54:18;7.80;;;2.92;;
37641;SDS011;23486;51.956;5.888;2022-12-20T11:56:50;7.90;;;2.95;;
37641;SDS011;23486;51.956;5.888;2022-12-20T12:04:31;6.20;;;2.97;;
37641;SDS011;23486;51.956;5.888;2022-12-20T12:12:37;6.60;;;2.95;;
37641;SDS011;23486;51.956;5.888;2022-12-20T12:17:47;4.97;;;2.40;;
37641;SDS011;23486;51.956;5.888;2022-12-20T12:26:09;6.80;;;2.90;;
37641;SDS011;23486;51.956;5.888;2022-12-20T12:28:45;5.97;;;2.65;;
37641;SDS011;23486;51.956;5.888;2022-12-20T12:31:40;8.38;;;3.25;;
37641;SDS011;23486;51.956;5.888;2022-12-20T12:37:00;7.28;;;2.80;;
37641;SDS011;23486;51.956;5.888;2022-12-20T12:45:15;7.72;;;3.03;;
37641;SDS011;23486;51.956;5.888;2022-12-20T12:47:54;5.18;;;2.67;;
37641;SDS011;23486;51.956;5.888;2022-12-20T12:50:26;6.13;;;2.75;;
37641;SDS011;23486;51.956;5.888;2022-12-20T12:53:02;7.28;;;3.75;;
37641;SDS011;23486;51.956;5.888;2022-12-20T12:55:44;6.60;;;3.40;;
37641;SDS011;23486;51.956;5.888;2022-12-20T13:01:02;7.80;;;3.38;;
37641;SDS011;23486;51.956;5.888;2022-12-20T13:09:08;6.68;;;3.47;;
37641;SDS011;23486;51.956;5.888;2022-12-20T13:11:42;8.02;;;3.50;;
37641;SDS011;23486;51.956;5.888;2022-12-20T13:16:46;8.52;;;4.47;;
37641;SDS011;23486;51.956;5.888;2022-12-20T13:19:16;6.25;;;3.65;;
37641;SDS011;23486;51.956;5.888;2022-12-20T13:21:57;7.22;;;4.10;;
37641;SDS011;23486;51.956;5.888;2022-12-20T13:26:58;6.95;;;4.03;;
37641;SDS011;23486;51.956;5.888;2022-12-20T13:29:27;6.63;;;4.13;;
37641;SDS011;23486;51.956;5.888;2022-12-20T13:31:58;5.97;;;3.57;;
37641;SDS011;23486;51.956;5.888;2022-12-20T13:34:38;7.68;;;4.63;;
37641;SDS011;23486;51.956;5.888;2022-12-20T13:37:28;8.50;;;3.97;;
37641;SDS011;23486;51.956;5.888;2022-12-20T13:40:21;6.07;;;3.60;;
37641;SDS011;23486;51.956;5.888;2022-12-20T13:42:50;7.75;;;3.90;;
37641;SDS011;23486;51.956;5.888;2022-12-20T13:45:30;7.97;;;4.40;;
37641;SDS011;23486;51.956;5.888;2022-12-20T13:47:59;7.30;;;5.05;;
37641;SDS011;23486;51.956;5.888;2022-12-20T13:51:09;9.73;;;4.65;;
37641;SDS011;23486;51.956;5.888;2022-12-20T13:53:20;7.32;;;4.38;;
37641;SDS011;23486;51.956;5.888;2022-12-20T13:55:48;7.72;;;5.43;;
37641;SDS011;23486;51.956;5.888;2022-12-20T13:58:35;9.40;;;4.65;;
37641;SDS011;23486;51.956;5.888;2022-12-20T14:01:09;7.38;;;5.70;;
37641;SDS011;23486;51.956;5.888;2022-12-20T14:03:39;9.52;;;5.80;;
37641;SDS011;23486;51.956;5.888;2022-12-20T14:06:09;7.35;;;4.70;;
37641;SDS011;23486;51.956;5.888;2022-12-20T14:08:37;7.78;;;5.75;;
37641;SDS011;23486;51.956;5.888;2022-12-20T14:13:49;7.80;;;5.15;;
37641;SDS011;23486;51.956;5.888;2022-12-20T14:16:17;6.18;;;5.03;;
37641;SDS011;23486;51.956;5.888;2022-12-20T14:19:17;9.75;;;5.72;;
37641;SDS011;23486;51.956;5.888;2022-12-20T14:21:43;8.32;;;4.80;;
37641;SDS011;23486;51.956;5.888;2022-12-20T14:24:12;8.23;;;5.93;;
37641;SDS011;23486;51.956;5.888;2022-12-20T14:26:41;7.60;;;5.22;;
37641;SDS011;23486;51.956;5.888;2022-12-20T14:29:14;7.68;;;4.93;;
37641;SDS011;23486;51.956;5.888;2022-12-20T14:31:48;8.23;;;5.03;;
37641;SDS011;23486;51.956;5.888;2022-12-20T14:34:15;6.88;;;5.10;;
37641;SDS011;23486;51.956;5.888;2022-12-20T14:36:49;7.80;;;5.85;;
37641;SDS011;23486;51.956;5.888;2022-12-20T14:39:28;9.63;;;5.15;;
37641;SDS011;23486;51.956;5.888;2022-12-20T14:44:24;7.55;;;5.32;;
37641;SDS011;23486;51.956;5.888;2022-12-20T14:46:57;8.77;;;6.32;;
37641;SDS011;23486;51.956;5.888;2022-12-20T14:49:26;10.00;;;5.97;;
37641;SDS011;23486;51.956;5.888;2022-12-20T14:52:12;9.50;;;5.50;;
37641;SDS011;23486;51.956;5.888;2022-12-20T14:54:45;9.27;;;5.43;;
37641;SDS011;23486;51.956;5.888;2022-12-20T14:57:24;8.35;;;5.35;;
37641;SDS011;23486;51.956;5.888;2022-12-20T15:02:33;8.93;;;5.03;;
37641;SDS011;23486;51.956;5.888;2022-12-20T15:13:36;10.05;;;6.55;;
37641;SDS011;23486;51.956;5.888;2022-12-20T15:16:16;7.35;;;5.78;;
37641;SDS011;23486;51.956;5.888;2022-12-20T15:18:44;8.23;;;5.75;;
37641;SDS011;23486;51.956;5.888;2022-12-20T15:21:20;8.13;;;5.50;;
37641;SDS011;23486;51.956;5.888;2022-12-20T15:24:03;9.15;;;6.30;;
37641;SDS011;23486;51.956;5.888;2022-12-20T15:26:38;6.22;;;5.30;;
37641;SDS011;23486;51.956;5.888;2022-12-20T15:29:04;7.28;;;5.72;;
37641;SDS011;23486;51.956;5.888;2022-12-20T15:31:31;7.93;;;5.00;;
37641;SDS011;23486;51.956;5.888;2022-12-20T15:33:58;6.85;;;4.85;;
37641;SDS011;23486;51.956;5.888;2022-12-20T15:36:26;7.05;;;4.95;;
37641;SDS011;23486;51.956;5.888;2022-12-20T15:38:53;8.48;;;5.00;;
37641;SDS011;23486;51.956;5.888;2022-12-20T15:41:25;6.68;;;4.75;;
37641;SDS011;23486;51.956;5.888;2022-12-20T15:43:57;6.05;;;4.93;;
37641;SDS011;23486;51.956;5.888;2022-12-20T15:46:44;8.38;;;5.63;;
37641;SDS011;23486;51.956;5.888;2022-12-20T15:49:17;7.88;;;4.90;;
37641;SDS011;23486;51.956;5.888;2022-12-20T15:51:45;7.45;;;5.53;;
37641;SDS011;23486;51.956;5.888;2022-12-20T15:56:53;6.53;;;5.30;;
37641;SDS011;23486;51.956;5.888;2022-12-20T15:59:23;7.93;;;5.50;;
37641;SDS011;23486;51.956;5.888;2022-12-20T16:01:48;9.18;;;6.00;;
37641;SDS011;23486;51.956;5.888;2022-12-20T16:04:16;10.63;;;7.13;;
37641;SDS011;23486;51.956;5.888;2022-12-20T16:06:43;7.95;;;5.70;;
37641;SDS011;23486;51.956;5.888;2022-12-20T16:09:10;9.05;;;7.07;;
37641;SDS011;23486;51.956;5.888;2022-12-20T16:11:36;9.25;;;6.57;;
37641;SDS011;23486;51.956;5.888;2022-12-20T16:14:02;11.68;;;7.95;;
37641;SDS011;23486;51.956;5.888;2022-12-20T16:16:29;15.45;;;9.80;;
37641;SDS011;23486;51.956;5.888;2022-12-20T16:19:00;12.05;;;8.80;;
37641;SDS011;23486;51.956;5.888;2022-12-20T16:21:31;17.98;;;12.80;;
37641;SDS011;23486;51.956;5.888;2022-12-20T16:24:00;13.43;;;8.93;;
37641;SDS011;23486;51.956;5.888;2022-12-20T16:26:26;13.20;;;9.45;;
37641;SDS011;23486;51.956;5.888;2022-12-20T16:28:53;11.60;;;7.90;;
37641;SDS011;23486;51.956;5.888;2022-12-20T16:33:56;12.48;;;9.07;;
37641;SDS011;23486;51.956;5.888;2022-12-20T16:36:23;14.00;;;9.25;;
37641;SDS011;23486;51.956;5.888;2022-12-20T16:38:49;12.10;;;9.43;;
37641;SDS011;23486;51.956;5.888;2022-12-20T16:43:46;13.73;;;10.70;;
37641;SDS011;23486;51.956;5.888;2022-12-20T16:46:15;14.02;;;10.43;;
37641;SDS011;23486;51.956;5.888;2022-12-20T16:48:42;15.25;;;10.85;;
37641;SDS011;23486;51.956;5.888;2022-12-20T16:53:53;16.52;;;10.65;;
37641;SDS011;23486;51.956;5.888;2022-12-20T16:56:26;15.48;;;11.18;;
37641;SDS011;23486;51.956;5.888;2022-12-20T16:58:52;16.65;;;12.05;;
37641;SDS011;23486;51.956;5.888;2022-12-20T17:01:19;15.23;;;11.63;;
37641;SDS011;23486;51.956;5.888;2022-12-20T17:03:48;16.40;;;12.15;;
37641;SDS011;23486;51.956;5.888;2022-12-20T17:06:17;13.65;;;11.45;;
37641;SDS011;23486;51.956;5.888;2022-12-20T17:08:44;15.52;;;12.55;;
37641;SDS011;23486;51.956;5.888;2022-12-20T17:11:17;15.35;;;12.35;;
37641;SDS011;23486;51.956;5.888;2022-12-20T17:13:54;14.95;;;12.00;;